Terminal Aerodrome Forecast
Issued by NWS Springfield, MO

Home | Current Version | Previous Version | Text Only | Print | Product List | Glossary On
Versions: 1 2 3 4 5 6 7 8 9 10 11 12 13 14 15 16 17 18 19 20
000
FTUS43 KSGF 180500
TAFSGF
TAF
KSGF 180520Z 1806/1906 11005KT 6SM -RA BR SCT008 OVC050
     FM180700 13006KT 4SM -DZ BR FEW005 BKN008 OVC050
     FM181300 15006KT 2SM -DZ BR OVC005
     FM181500 VRB04KT 4SM BR OVC005
     FM190000 07004KT 2SM BR OVC003=

USA.gov is the U.S. government's official web portal to all federal, state and local government web resources and services.